^^
Station Historical Data
Daily Summary for January 3, 2018 Units:  Both    English   Metric
« Previous Day
Next Day »
Daily Weekly Monthly Yearly Custom
  High: Low: Average:
Temperature: 94.8 °F /  34.9 °C 67.6 °F /  19.8 °C 81.1 °F /  27.3 °C
Dew Point: 25.5 °F /  -3.6 °C 4.3 °F /  -15.4 °C 16.7 °F /  -8.5 °C
Humidity: 16% 5% 10%
Wind Speed: 14.1mph /  22.7km/h - 3.6mph /  5.8km/h
Wind Gust: 17.0mph /  27.4km/h - -
Wind- - ESE
Pressure: 30.23 in /  1023.6 hPa 30.10 in /  1019.2 hPa -
Precipitation: 0.00 in /  0 mm    
Historical Graphs
 
 
Tabular Data for January 3, 2018
Time Temperature Dew Point Pressure Wind Wind Speed Wind Gust Humidity Rainfall Rate (Hourly) solar Conditions
00:03 75.0 °F /  23.9 °C 20.8 °F /  -6.2 °C 30.17in /  1021.6hPa Calm   4.0mph /  6.4km/h 13% 0.00in /  0mm 0.0 W/m2
00:08 74.8 °F /  23.8 °C 20.7 °F /  -6.3 °C 30.17in /  1021.6hPa ENE 0.9mph /  1.4km/h 3.0mph /  4.8km/h 13% 0.00in /  0mm 0.0 W/m2
00:13 74.8 °F /  23.8 °C 24.1 °F /  -4.4 °C 30.17in /  1021.6hPa ENE 0.9mph /  1.4km/h 1.0mph /  1.6km/h 15% 0.00in /  0mm 0.0 W/m2
00:18 74.5 °F /  23.6 °C 22.1 °F /  -5.5 °C 30.17in /  1021.6hPa Calm   1.0mph /  1.6km/h 14% 0.00in /  0mm 0.0 W/m2
00:23 74.5 °F /  23.6 °C 22.1 °F /  -5.5 °C 30.17in /  1021.6hPa NNE 0.9mph /  1.4km/h 1.0mph /  1.6km/h 14% 0.00in /  0mm 0.0 W/m2
00:29 74.1 °F /  23.4 °C 23.5 °F /  -4.7 °C 30.16in /  1021.2hPa Calm   1.0mph /  1.6km/h 15% 0.00in /  0mm 0.0 W/m2
00:34 73.8 °F /  23.2 °C 23.2 °F /  -4.9 °C 30.16in /  1021.2hPa NNE 2.9mph /  4.7km/h 4.0mph /  6.4km/h 15% 0.00in /  0mm 0.0 W/m2
00:39 73.2 °F /  22.9 °C 21.2 °F /  -6 °C 30.16in /  1021.2hPa SE 0.9mph /  1.4km/h 5.0mph /  8km/h 14% 0.00in /  0mm 0.0 W/m2
00:44 73.2 °F /  22.9 °C 21.2 °F /  -6 °C 30.16in /  1021.2hPa East 0.9mph /  1.4km/h 4.0mph /  6.4km/h 14% 0.00in /  0mm 0.0 W/m2
00:49 73.6 °F /  23.1 °C 21.4 °F /  -5.9 °C 30.16in /  1021.2hPa SE 2.0mph /  3.2km/h 7.0mph /  11.3km/h 14% 0.00in /  0mm 0.0 W/m2
00:54 73.8 °F /  23.2 °C 21.6 °F /  -5.8 °C 30.16in /  1021.2hPa SE 0.9mph /  1.4km/h 6.0mph /  9.7km/h 14% 0.00in /  0mm 0.0 W/m2
00:59 73.9 °F /  23.3 °C 21.7 °F /  -5.7 °C 30.16in /  1021.2hPa SE 4.0mph /  6.4km/h 8.0mph /  12.9km/h 14% 0.00in /  0mm 0.0 W/m2
01:02 73.9 °F /  23.3 °C 21.7 °F /  -5.7 °C 30.16in /  1021.2hPa East 2.9mph /  4.7km/h 7.0mph /  11.3km/h 14% 0.00in /  0mm 0.0 W/m2
01:07 73.9 °F /  23.3 °C 21.7 °F /  -5.7 °C 30.16in /  1021.2hPa ESE 4.0mph /  6.4km/h 5.0mph /  8km/h 14% 0.00in /  0mm 0.0 W/m2
01:13 73.9 °F /  23.3 °C 19.9 °F /  -6.7 °C 30.16in /  1021.2hPa NE 0.9mph /  1.4km/h 4.0mph /  6.4km/h 13% 0.00in /  0mm 0.0 W/m2
01:18 73.8 °F /  23.2 °C 21.6 °F /  -5.8 °C 30.16in /  1021.2hPa SE 2.0mph /  3.2km/h 3.0mph /  4.8km/h 14% 0.00in /  0mm 0.0 W/m2
01:23 73.6 °F /  23.1 °C 21.4 °F /  -5.9 °C 30.16in /  1021.2hPa Calm   2.0mph /  3.2km/h 14% 0.00in /  0mm 0.0 W/m2
01:28 73.4 °F /  23 °C 21.4 °F /  -5.9 °C 30.16in /  1021.2hPa Calm   2.0mph /  3.2km/h 14% 0.00in /  0mm 0.0 W/m2
01:31 73.2 °F /  22.9 °C 21.2 °F /  -6 °C 30.16in /  1021.2hPa Calm   3.0mph /  4.8km/h 14% 0.00in /  0mm 0.0 W/m2
01:36 72.9 °F /  22.7 °C 20.8 °F /  -6.2 °C 30.16in /  1021.2hPa Calm   1.0mph /  1.6km/h 14% 0.00in /  0mm 0.0 W/m2
01:41 72.7 °F /  22.6 °C 20.7 °F /  -6.3 °C 30.16in /  1021.2hPa ESE 0.9mph /  1.4km/h 6.0mph /  9.7km/h 14% 0.00in /  0mm 0.0 W/m2
01:51 72.1 °F /  22.3 °C 18.5 °F /  -7.5 °C 30.16in /  1021.2hPa Calm   1.0mph /  1.6km/h 13% 0.00in /  0mm 0.0 W/m2
02:00 72.1 °F /  22.3 °C 16.7 °F /  -8.5 °C 30.16in /  1021.2hPa SE 2.9mph /  4.7km/h 5.0mph /  8km/h 12% 0.00in /  0mm 0.0 W/m2
02:09 72.3 °F /  22.4 °C 16.9 °F /  -8.4 °C 30.15in /  1020.9hPa SSE 4.9mph /  7.9km/h 11.0mph /  17.7km/h 12% 0.00in /  0mm 0.0 W/m2
02:14 72.5 °F /  22.5 °C 17.1 °F /  -8.3 °C 30.15in /  1020.9hPa SE 10.1mph /  16.3km/h 17.0mph /  27.4km/h 12% 0.00in /  0mm 0.0 W/m2
02:25 72.7 °F /  22.6 °C 17.1 °F /  -8.3 °C 30.15in /  1020.9hPa SE 4.0mph /  6.4km/h 11.0mph /  17.7km/h 12% 0.00in /  0mm 0.0 W/m2
02:27 72.7 °F /  22.6 °C 17.1 °F /  -8.3 °C 30.15in /  1020.9hPa ENE 2.9mph /  4.7km/h 13.0mph /  20.9km/h 12% 0.00in /  0mm 0.0 W/m2
02:33 72.7 °F /  22.6 °C 17.1 °F /  -8.3 °C 30.15in /  1020.9hPa SSE 2.9mph /  4.7km/h 8.0mph /  12.9km/h 12% 0.00in /  0mm 0.0 W/m2
02:44 72.7 °F /  22.6 °C 15.1 °F /  -9.4 °C 30.15in /  1020.9hPa South 6.9mph /  11.1km/h 13.0mph /  20.9km/h 11% 0.00in /  0mm 0.0 W/m2
02:49 72.7 °F /  22.6 °C 15.1 °F /  -9.4 °C 30.14in /  1020.5hPa SE 4.9mph /  7.9km/h 11.0mph /  17.7km/h 11% 0.00in /  0mm 0.0 W/m2
02:54 72.9 °F /  22.7 °C 15.3 °F /  -9.3 °C 30.14in /  1020.5hPa SE 8.1mph /  13km/h 14.0mph /  22.5km/h 11% 0.00in /  0mm 0.0 W/m2
03:00 72.9 °F /  22.7 °C 15.3 °F /  -9.3 °C 30.15in /  1020.9hPa NNE 2.9mph /  4.7km/h 14.0mph /  22.5km/h 11% 0.00in /  0mm 0.0 W/m2
03:05 72.7 °F /  22.6 °C 15.1 °F /  -9.4 °C 30.14in /  1020.5hPa East 6.9mph /  11.1km/h 10.0mph /  16.1km/h 11% 0.00in /  0mm 0.0 W/m2
03:10 72.7 °F /  22.6 °C 15.1 °F /  -9.4 °C 30.15in /  1020.9hPa East 8.9mph /  14.3km/h 11.0mph /  17.7km/h 11% 0.00in /  0mm 0.0 W/m2
03:15 72.3 °F /  22.4 °C 14.9 °F /  -9.5 °C 30.15in /  1020.9hPa SE 13.0mph /  20.9km/h 14.0mph /  22.5km/h 11% 0.00in /  0mm 0.0 W/m2
03:16 72.3 °F /  22.4 °C 14.9 °F /  -9.5 °C 30.15in /  1020.9hPa South 4.9mph /  7.9km/h 14.0mph /  22.5km/h 11% 0.00in /  0mm 0.0 W/m2
03:21 72.3 °F /  22.4 °C 14.9 °F /  -9.5 °C 30.15in /  1020.9hPa Calm   10.0mph /  16.1km/h 11% 0.00in /  0mm 0.0 W/m2
03:26 72.1 °F /  22.3 °C 14.7 °F /  -9.6 °C 30.14in /  1020.5hPa East 6.0mph /  9.7km/h 11.0mph /  17.7km/h 11% 0.00in /  0mm 0.0 W/m2
03:31 72.1 °F /  22.3 °C 14.7 °F /  -9.6 °C 30.15in /  1020.9hPa South 2.0mph /  3.2km/h 13.0mph /  20.9km/h 11% 0.00in /  0mm 0.0 W/m2
03:53 72.0 °F /  22.2 °C 14.5 °F /  -9.7 °C 30.15in /  1020.9hPa ENE 4.0mph /  6.4km/h 10.0mph /  16.1km/h 11% 0.00in /  0mm 0.0 W/m2
03:58 72.0 °F /  22.2 °C 14.5 °F /  -9.7 °C 30.15in /  1020.9hPa ESE 10.1mph /  16.3km/h 15.0mph /  24.1km/h 11% 0.00in /  0mm 0.0 W/m2
04:01 72.0 °F /  22.2 °C 14.5 °F /  -9.7 °C 30.15in /  1020.9hPa East 8.1mph /  13km/h 11.0mph /  17.7km/h 11% 0.00in /  0mm 0.0 W/m2
04:06 72.0 °F /  22.2 °C 14.5 °F /  -9.7 °C 30.15in /  1020.9hPa SE 8.1mph /  13km/h 17.0mph /  27.4km/h 11% 0.00in /  0mm 0.0 W/m2
04:11 72.0 °F /  22.2 °C 14.5 °F /  -9.7 °C 30.15in /  1020.9hPa ESE 2.9mph /  4.7km/h 11.0mph /  17.7km/h 11% 0.00in /  0mm 0.0 W/m2
04:12 72.0 °F /  22.2 °C 14.5 °F /  -9.7 °C 30.15in /  1020.9hPa Calm   12.0mph /  19.3km/h 11% 0.00in /  0mm 0.0 W/m2
04:17 72.0 °F /  22.2 °C 14.5 °F /  -9.7 °C 30.15in /  1020.9hPa ESE 8.1mph /  13km/h 10.0mph /  16.1km/h 11% 0.00in /  0mm 0.0 W/m2
04:27 71.4 °F /  21.9 °C 14.2 °F /  -9.9 °C 30.17in /  1021.6hPa East 4.0mph /  6.4km/h 11.0mph /  17.7km/h 11% 0.00in /  0mm 0.0 W/m2
04:29 71.4 °F /  21.9 °C 14.2 °F /  -9.9 °C 30.17in /  1021.6hPa ESE 13.0mph /  20.9km/h 13.0mph /  20.9km/h 11% 0.00in /  0mm 0.0 W/m2
04:33 71.4 °F /  21.9 °C 14.2 °F /  -9.9 °C 30.17in /  1021.6hPa East 4.9mph /  7.9km/h 12.0mph /  19.3km/h 11% 0.00in /  0mm 0.0 W/m2
04:38 71.4 °F /  21.9 °C 14.2 °F /  -9.9 °C 30.17in /  1021.6hPa ESE 4.9mph /  7.9km/h 7.0mph /  11.3km/h 11% 0.00in /  0mm 0.0 W/m2
04:43 71.4 °F /  21.9 °C 14.2 °F /  -9.9 °C 30.17in /  1021.6hPa SE 2.9mph /  4.7km/h 12.0mph /  19.3km/h 11% 0.00in /  0mm 0.0 W/m2
04:51 71.2 °F /  21.8 °C 14.0 °F /  -10 °C 30.17in /  1021.6hPa East 10.1mph /  16.3km/h 14.0mph /  22.5km/h 11% 0.00in /  0mm 0.0 W/m2
04:57 71.2 °F /  21.8 °C 14.0 °F /  -10 °C 30.17in /  1021.6hPa East 6.0mph /  9.7km/h 13.0mph /  20.9km/h 11% 0.00in /  0mm 0.0 W/m2
05:02 71.2 °F /  21.8 °C 14.0 °F /  -10 °C 30.17in /  1021.6hPa East 6.0mph /  9.7km/h 12.0mph /  19.3km/h 11% 0.00in /  0mm 0.0 W/m2
05:08 71.4 °F /  21.9 °C 14.2 °F /  -9.9 °C 30.17in /  1021.6hPa ESE 8.1mph /  13km/h 16.0mph /  25.7km/h 11% 0.00in /  0mm 0.0 W/m2
05:16 71.4 °F /  21.9 °C 14.2 °F /  -9.9 °C 30.17in /  1021.6hPa ESE 14.1mph /  22.7km/h 15.0mph /  24.1km/h 11% 0.00in /  0mm 0.0 W/m2
05:21 71.4 °F /  21.9 °C 14.2 °F /  -9.9 °C 30.17in /  1021.6hPa SSE 0.9mph /  1.4km/h 11.0mph /  17.7km/h 11% 0.00in /  0mm 0.0 W/m2
05:27 71.4 °F /  21.9 °C 14.2 °F /  -9.9 °C 30.18in /  1021.9hPa ESE 4.9mph /  7.9km/h 15.0mph /  24.1km/h 11% 0.00in /  0mm 0.0 W/m2
05:37 71.2 °F /  21.8 °C 14.0 °F /  -10 °C 30.18in /  1021.9hPa Calm   12.0mph /  19.3km/h 11% 0.00in /  0mm 0.0 W/m2
05:47 71.1 °F /  21.7 °C 13.8 °F /  -10.1 °C 30.19in /  1022.2hPa NNE 4.0mph /  6.4km/h 4.0mph /  6.4km/h 11% 0.00in /  0mm 0.0 W/m2
05:52 70.9 °F /  21.6 °C 13.8 °F /  -10.1 °C 30.19in /  1022.2hPa ESE 0.9mph /  1.4km/h 7.0mph /  11.3km/h 11% 0.00in /  0mm 0.0 W/m2
05:57 70.3 °F /  21.3 °C 15.3 °F /  -9.3 °C 30.19in /  1022.2hPa Calm   5.0mph /  8km/h 12% 0.00in /  0mm 0.0 W/m2
05:59 70.2 °F /  21.2 °C 15.1 °F /  -9.4 °C 30.19in /  1022.2hPa Calm   3.0mph /  4.8km/h 12% 0.00in /  0mm 0.0 W/m2
06:05 69.6 °F /  20.9 °C 16.5 °F /  -8.6 °C 30.20in /  1022.6hPa Calm   2.0mph /  3.2km/h 13% 0.00in /  0mm 0.0 W/m2
06:07 69.4 °F /  20.8 °C 16.5 °F /  -8.6 °C 30.20in /  1022.6hPa Calm   7.0mph /  11.3km/h 13% 0.00in /  0mm 0.0 W/m2
06:12 68.9 °F /  20.5 °C 16.0 °F /  -8.9 °C 30.20in /  1022.6hPa SSE 2.0mph /  3.2km/h 4.0mph /  6.4km/h 13% 0.00in /  0mm 0.0 W/m2
06:19 68.4 °F /  20.2 °C 17.2 °F /  -8.2 °C 30.20in /  1022.6hPa Calm   3.0mph /  4.8km/h 14% 0.00in /  0mm 5.0 W/m2
06:24 68.0 °F /  20 °C 17.1 °F /  -8.3 °C 30.20in /  1022.6hPa SE 2.0mph /  3.2km/h 4.0mph /  6.4km/h 14% 0.00in /  0mm 7.0 W/m2
06:34 67.8 °F /  19.9 °C 18.5 °F /  -7.5 °C 30.20in /  1022.6hPa ENE 0.9mph /  1.4km/h 4.0mph /  6.4km/h 15% 0.00in /  0mm 11.0 W/m2
06:39 67.6 °F /  19.8 °C 18.3 °F /  -7.6 °C 30.20in /  1022.6hPa SSE 2.9mph /  4.7km/h 8.0mph /  12.9km/h 15% 0.00in /  0mm 12.0 W/m2
06:44 67.8 °F /  19.9 °C 18.5 °F /  -7.5 °C 30.20in /  1022.6hPa NNE 0.9mph /  1.4km/h 4.0mph /  6.4km/h 15% 0.00in /  0mm 14.0 W/m2
06:49 67.8 °F /  19.9 °C 19.9 °F /  -6.7 °C 30.20in /  1022.6hPa ESE 2.9mph /  4.7km/h 8.0mph /  12.9km/h 16% 0.00in /  0mm 16.0 W/m2
06:54 68.0 °F /  20 °C 20.1 °F /  -6.6 °C 30.21in /  1022.9hPa ESE 0.9mph /  1.4km/h 9.0mph /  14.5km/h 16% 0.00in /  0mm 16.0 W/m2
06:56 68.2 °F /  20.1 °C 18.7 °F /  -7.4 °C 30.21in /  1022.9hPa ESE 0.9mph /  1.4km/h 7.0mph /  11.3km/h 15% 0.00in /  0mm 18.0 W/m2
07:07 68.7 °F /  20.4 °C 19.2 °F /  -7.1 °C 30.21in /  1022.9hPa SSE 4.0mph /  6.4km/h 7.0mph /  11.3km/h 15% 0.00in /  0mm 19.0 W/m2
07:08 68.7 °F /  20.4 °C 19.2 °F /  -7.1 °C 30.21in /  1022.9hPa SE 4.0mph /  6.4km/h 11.0mph /  17.7km/h 15% 0.00in /  0mm 19.0 W/m2
07:13 69.3 °F /  20.7 °C 21.2 °F /  -6 °C 30.21in /  1022.9hPa ENE 6.9mph /  11.1km/h 11.0mph /  17.7km/h 16% 0.00in /  0mm 21.0 W/m2
07:16 69.3 °F /  20.7 °C 21.2 °F /  -6 °C 30.21in /  1022.9hPa NE 4.9mph /  7.9km/h 8.0mph /  12.9km/h 16% 0.00in /  0mm 21.0 W/m2
07:19 69.4 °F /  20.8 °C 19.8 °F /  -6.8 °C 30.21in /  1022.9hPa East 4.9mph /  7.9km/h 10.0mph /  16.1km/h 15% 0.00in /  0mm 21.0 W/m2
07:24 69.6 °F /  20.9 °C 21.4 °F /  -5.9 °C 30.21in /  1022.9hPa ENE 4.9mph /  7.9km/h 10.0mph /  16.1km/h 16% 0.00in /  0mm 23.0 W/m2
07:25 69.6 °F /  20.9 °C 21.4 °F /  -5.9 °C 30.21in /  1022.9hPa East 0.9mph /  1.4km/h 10.0mph /  16.1km/h 16% 0.00in /  0mm 23.0 W/m2
07:30 69.8 °F /  21 °C 21.6 °F /  -5.8 °C 30.22in /  1023.2hPa ESE 6.0mph /  9.7km/h 9.0mph /  14.5km/h 16% 0.00in /  0mm 25.0 W/m2
07:36 70.2 °F /  21.2 °C 21.9 °F /  -5.6 °C 30.22in /  1023.2hPa ENE 4.0mph /  6.4km/h 10.0mph /  16.1km/h 16% 0.00in /  0mm 25.0 W/m2
07:42 70.3 °F /  21.3 °C 22.1 °F /  -5.5 °C 30.22in /  1023.2hPa ENE 4.0mph /  6.4km/h 6.0mph /  9.7km/h 16% 0.00in /  0mm 26.0 W/m2
07:47 70.9 °F /  21.6 °C 22.5 °F /  -5.3 °C 30.22in /  1023.2hPa ENE 6.0mph /  9.7km/h 10.0mph /  16.1km/h 16% 0.00in /  0mm 49.0 W/m2
07:52 71.1 °F /  21.7 °C 22.6 °F /  -5.2 °C 30.22in /  1023.2hPa SE 0.9mph /  1.4km/h 8.0mph /  12.9km/h 16% 0.00in /  0mm 332.0 W/m2
07:57 71.8 °F /  22.1 °C 21.6 °F /  -5.8 °C 30.22in /  1023.2hPa East 2.9mph /  4.7km/h 12.0mph /  19.3km/h 15% 0.00in /  0mm 387.0 W/m2
08:01 72.3 °F /  22.4 °C 20.5 °F /  -6.4 °C 30.22in /  1023.2hPa NNE 4.0mph /  6.4km/h 12.0mph /  19.3km/h 14% 0.00in /  0mm 406.0 W/m2
08:07 73.0 °F /  22.8 °C 22.6 °F /  -5.2 °C 30.22in /  1023.2hPa SSE 2.9mph /  4.7km/h 11.0mph /  17.7km/h 15% 0.00in /  0mm 429.0 W/m2
08:08 73.2 °F /  22.9 °C 22.8 °F /  -5.1 °C 30.22in /  1023.2hPa ESE 4.0mph /  6.4km/h 11.0mph /  17.7km/h 15% 0.00in /  0mm 434.0 W/m2
08:13 73.8 °F /  23.2 °C 23.2 °F /  -4.9 °C 30.22in /  1023.2hPa NNE 2.0mph /  3.2km/h 8.0mph /  12.9km/h 15% 0.00in /  0mm 454.0 W/m2
08:18 74.5 °F /  23.6 °C 22.1 °F /  -5.5 °C 30.22in /  1023.2hPa Calm   6.0mph /  9.7km/h 14% 0.00in /  0mm 475.0 W/m2
08:23 74.8 °F /  23.8 °C 22.5 °F /  -5.3 °C 30.22in /  1023.2hPa ENE 6.0mph /  9.7km/h 9.0mph /  14.5km/h 14% 0.00in /  0mm 494.0 W/m2
08:28 75.4 °F /  24.1 °C 22.8 °F /  -5.1 °C 30.22in /  1023.2hPa ENE 4.0mph /  6.4km/h 10.0mph /  16.1km/h 14% 0.00in /  0mm 515.0 W/m2
08:33 75.6 °F /  24.2 °C 21.2 °F /  -6 °C 30.22in /  1023.2hPa ESE 2.9mph /  4.7km/h 11.0mph /  17.7km/h 13% 0.00in /  0mm 533.0 W/m2
08:38 75.9 °F /  24.4 °C 21.6 °F /  -5.8 °C 30.22in /  1023.2hPa SSE 6.0mph /  9.7km/h 10.0mph /  16.1km/h 13% 0.00in /  0mm 552.0 W/m2
08:43 76.3 °F /  24.6 °C 21.7 °F /  -5.7 °C 30.22in /  1023.2hPa East 2.0mph /  3.2km/h 12.0mph /  19.3km/h 13% 0.00in /  0mm 571.0 W/m2
08:48 76.8 °F /  24.9 °C 22.3 °F /  -5.4 °C 30.22in /  1023.2hPa NNE 4.9mph /  7.9km/h 11.0mph /  17.7km/h 13% 0.00in /  0mm 591.0 W/m2
08:53 77.4 °F /  25.2 °C 22.6 °F /  -5.2 °C 30.23in /  1023.6hPa East 2.0mph /  3.2km/h 14.0mph /  22.5km/h 13% 0.00in /  0mm 608.0 W/m2
08:59 77.7 °F /  25.4 °C 23.0 °F /  -5 °C 30.23in /  1023.6hPa East 10.1mph /  16.3km/h 10.1mph /  16.3km/h 13% 0.00in /  0mm 631.0 W/m2
09:02 77.7 °F /  25.4 °C 21.0 °F /  -6.1 °C 30.23in /  1023.6hPa NNE 2.9mph /  4.7km/h 11.0mph /  17.7km/h 12% 0.00in /  0mm 643.0 W/m2
09:07 78.3 °F /  25.7 °C 23.4 °F /  -4.8 °C 30.23in /  1023.6hPa ENE 6.0mph /  9.7km/h 8.0mph /  12.9km/h 13% 0.00in /  0mm 657.0 W/m2
09:12 78.6 °F /  25.9 °C 21.7 °F /  -5.7 °C 30.23in /  1023.6hPa ENE 6.0mph /  9.7km/h 10.0mph /  16.1km/h 12% 0.00in /  0mm 675.0 W/m2
09:17 78.6 °F /  25.9 °C 21.7 °F /  -5.7 °C 30.23in /  1023.6hPa SE 0.9mph /  1.4km/h 9.0mph /  14.5km/h 12% 0.00in /  0mm 694.0 W/m2
09:23 79.2 °F /  26.2 °C 22.1 °F /  -5.5 °C 30.22in /  1023.2hPa East 6.9mph /  11.1km/h 15.0mph /  24.1km/h 12% 0.00in /  0mm 712.0 W/m2
09:29 79.5 °F /  26.4 °C 22.5 °F /  -5.3 °C 30.23in /  1023.6hPa ESE 2.9mph /  4.7km/h 10.0mph /  16.1km/h 12% 0.00in /  0mm 733.0 W/m2
09:30 79.7 °F /  26.5 °C 22.6 °F /  -5.2 °C 30.23in /  1023.6hPa South 2.9mph /  4.7km/h 10.0mph /  16.1km/h 12% 0.00in /  0mm 738.0 W/m2
09:36 79.9 °F /  26.6 °C 22.8 °F /  -5.1 °C 30.22in /  1023.2hPa East 2.9mph /  4.7km/h 5.0mph /  8km/h 12% 0.00in /  0mm 740.0 W/m2
09:41 80.8 °F /  27.1 °C 23.4 °F /  -4.8 °C 30.23in /  1023.6hPa East 0.9mph /  1.4km/h 8.0mph /  12.9km/h 12% 0.00in /  0mm 775.0 W/m2
09:44 81.0 °F /  27.2 °C 25.5 °F /  -3.6 °C 30.23in /  1023.6hPa ENE 8.9mph /  14.3km/h 12.0mph /  19.3km/h 13% 0.00in /  0mm 786.0 W/m2
09:49 81.7 °F /  27.6 °C 24.1 °F /  -4.4 °C 30.22in /  1023.2hPa NE 2.9mph /  4.7km/h 8.0mph /  12.9km/h 12% 0.00in /  0mm 800.0 W/m2
09:54 81.9 °F /  27.7 °C 22.3 °F /  -5.4 °C 30.22in /  1023.2hPa ENE 2.9mph /  4.7km/h 9.0mph /  14.5km/h 11% 0.00in /  0mm 816.0 W/m2
10:10 82.6 °F /  28.1 °C 22.8 °F /  -5.1 °C 30.22in /  1023.2hPa ENE 4.0mph /  6.4km/h 10.0mph /  16.1km/h 11% 0.00in /  0mm 861.0 W/m2
10:15 82.8 °F /  28.2 °C 20.7 °F /  -6.3 °C 30.22in /  1023.2hPa SSE 4.9mph /  7.9km/h 10.0mph /  16.1km/h 10% 0.00in /  0mm 874.0 W/m2
10:20 82.6 °F /  28.1 °C 22.8 °F /  -5.1 °C 30.22in /  1023.2hPa SE 4.0mph /  6.4km/h 8.0mph /  12.9km/h 11% 0.00in /  0mm 888.0 W/m2
10:25 82.6 °F /  28.1 °C 22.8 °F /  -5.1 °C 30.22in /  1023.2hPa ESE 6.9mph /  11.1km/h 9.0mph /  14.5km/h 11% 0.00in /  0mm 902.0 W/m2
10:29 82.6 °F /  28.1 °C 18.0 °F /  -7.8 °C 30.22in /  1023.2hPa ESE 2.9mph /  4.7km/h 13.0mph /  20.9km/h 9% 0.00in /  0mm 912.0 W/m2
10:34 82.8 °F /  28.2 °C 20.7 °F /  -6.3 °C 30.22in /  1023.2hPa East 2.0mph /  3.2km/h 10.0mph /  16.1km/h 10% 0.00in /  0mm 926.0 W/m2
10:39 82.9 °F /  28.3 °C 20.8 °F /  -6.2 °C 30.22in /  1023.2hPa Calm   6.0mph /  9.7km/h 10% 0.00in /  0mm 937.0 W/m2
10:44 83.7 °F /  28.7 °C 21.4 °F /  -5.9 °C 30.22in /  1023.2hPa East 6.9mph /  11.1km/h 10.0mph /  16.1km/h 10% 0.00in /  0mm 949.0 W/m2
10:49 83.8 °F /  28.8 °C 21.4 °F /  -5.9 °C 30.22in /  1023.2hPa SE 8.9mph /  14.3km/h 10.0mph /  16.1km/h 10% 0.00in /  0mm 965.0 W/m2
10:55 84.0 °F /  28.9 °C 19.0 °F /  -7.2 °C 30.22in /  1023.2hPa NNE 2.9mph /  4.7km/h 8.0mph /  12.9km/h 9% 0.00in /  0mm 974.0 W/m2
11:00 84.4 °F /  29.1 °C 21.9 °F /  -5.6 °C 30.22in /  1023.2hPa ESE 6.9mph /  11.1km/h 14.0mph /  22.5km/h 10% 0.00in /  0mm 981.0 W/m2
11:05 84.6 °F /  29.2 °C 21.9 °F /  -5.6 °C 30.22in /  1023.2hPa NNE 4.9mph /  7.9km/h 5.0mph /  8km/h 10% 0.00in /  0mm 991.0 W/m2
11:15 85.3 °F /  29.6 °C 22.6 °F /  -5.2 °C 30.22in /  1023.2hPa NE 8.1mph /  13km/h 10.0mph /  16.1km/h 10% 0.00in /  0mm 1009.0 W/m2
11:20 85.5 °F /  29.7 °C 20.1 °F /  -6.6 °C 30.22in /  1023.2hPa East 2.9mph /  4.7km/h 11.0mph /  17.7km/h 9% 0.00in /  0mm 1020.0 W/m2
11:25 85.8 °F /  29.9 °C 23.0 °F /  -5 °C 30.22in /  1023.2hPa NE 2.9mph /  4.7km/h 7.0mph /  11.3km/h 10% 0.00in /  0mm 1027.0 W/m2
11:30 86.4 °F /  30.2 °C 20.8 °F /  -6.2 °C 30.22in /  1023.2hPa ESE 6.0mph /  9.7km/h 13.0mph /  20.9km/h 9% 0.00in /  0mm 1035.0 W/m2
11:37 86.4 °F /  30.2 °C 20.8 °F /  -6.2 °C 30.21in /  1022.9hPa East 0.9mph /  1.4km/h 8.0mph /  12.9km/h 9% 0.00in /  0mm 1046.0 W/m2
11:42 86.7 °F /  30.4 °C 21.2 °F /  -6 °C 30.21in /  1022.9hPa NNE 2.0mph /  3.2km/h 9.0mph /  14.5km/h 9% 0.00in /  0mm 1049.0 W/m2
11:47 87.1 °F /  30.6 °C 21.4 °F /  -5.9 °C 30.21in /  1022.9hPa ESE 2.0mph /  3.2km/h 10.0mph /  16.1km/h 9% 0.00in /  0mm 1055.0 W/m2
11:52 86.9 °F /  30.5 °C 21.2 °F /  -6 °C 30.21in /  1022.9hPa NE 0.9mph /  1.4km/h 9.0mph /  14.5km/h 9% 0.00in /  0mm 1062.0 W/m2
12:02 87.6 °F /  30.9 °C 21.7 °F /  -5.7 °C 30.21in /  1022.9hPa ENE 2.0mph /  3.2km/h 7.0mph /  11.3km/h 9% 0.00in /  0mm 1071.0 W/m2
12:07 88.0 °F /  31.1 °C 19.4 °F /  -7 °C 30.20in /  1022.6hPa North 0.9mph /  1.4km/h 2.0mph /  3.2km/h 8% 0.00in /  0mm 1078.0 W/m2
12:08 88.0 °F /  31.1 °C 24.6 °F /  -4.1 °C 30.20in /  1022.6hPa SE 2.0mph /  3.2km/h 2.0mph /  3.2km/h 10% 0.00in /  0mm 1078.0 W/m2
12:14 88.3 °F /  31.3 °C 22.3 °F /  -5.4 °C 30.20in /  1022.6hPa Calm   6.0mph /  9.7km/h 9% 0.00in /  0mm 1085.0 W/m2
12:19 88.9 °F /  31.6 °C 25.3 °F /  -3.7 °C 30.20in /  1022.6hPa South 2.9mph /  4.7km/h 4.0mph /  6.4km/h 10% 0.00in /  0mm 1085.0 W/m2
12:25 89.1 °F /  31.7 °C 20.1 °F /  -6.6 °C 30.20in /  1022.6hPa SE 4.9mph /  7.9km/h 8.0mph /  12.9km/h 8% 0.00in /  0mm 1088.0 W/m2
12:30 89.1 °F /  31.7 °C 22.8 °F /  -5.1 °C 30.20in /  1022.6hPa SSE 2.9mph /  4.7km/h 11.0mph /  17.7km/h 9% 0.00in /  0mm 1090.0 W/m2
12:35 89.1 °F /  31.7 °C 22.8 °F /  -5.1 °C 30.20in /  1022.6hPa ESE 4.0mph /  6.4km/h 9.0mph /  14.5km/h 9% 0.00in /  0mm 1090.0 W/m2
12:41 89.1 °F /  31.7 °C 20.1 °F /  -6.6 °C 30.20in /  1022.6hPa NNE 4.9mph /  7.9km/h 7.0mph /  11.3km/h 8% 0.00in /  0mm 1093.0 W/m2
12:46 89.4 °F /  31.9 °C 23.2 °F /  -4.9 °C 30.20in /  1022.6hPa SE 2.0mph /  3.2km/h 8.0mph /  12.9km/h 9% 0.00in /  0mm 1093.0 W/m2
12:51 89.8 °F /  32.1 °C 20.7 °F /  -6.3 °C 30.19in /  1022.2hPa Calm   7.0mph /  11.3km/h 8% 0.00in /  0mm 1083.0 W/m2
13:01 90.1 °F /  32.3 °C 20.8 °F /  -6.2 °C 30.19in /  1022.2hPa South 4.9mph /  7.9km/h 7.0mph /  11.3km/h 8% 0.00in /  0mm 1081.0 W/m2
13:11 90.0 °F /  32.2 °C 20.8 °F /  -6.2 °C 30.19in /  1022.2hPa ESE 2.9mph /  4.7km/h 6.0mph /  9.7km/h 8% 0.00in /  0mm 1081.0 W/m2
13:13 90.0 °F /  32.2 °C 20.8 °F /  -6.2 °C 30.19in /  1022.2hPa East 4.0mph /  6.4km/h 5.0mph /  8km/h 8% 0.00in /  0mm 1081.0 W/m2
13:19 90.3 °F /  32.4 °C 21.0 °F /  -6.1 °C 30.19in /  1022.2hPa South 4.9mph /  7.9km/h 12.0mph /  19.3km/h 8% 0.00in /  0mm 1072.0 W/m2
13:24 90.3 °F /  32.4 °C 23.9 °F /  -4.5 °C 30.18in /  1021.9hPa SE 4.9mph /  7.9km/h 10.0mph /  16.1km/h 9% 0.00in /  0mm 1079.0 W/m2
13:30 90.7 °F /  32.6 °C 24.1 °F /  -4.4 °C 30.18in /  1021.9hPa ESE 2.0mph /  3.2km/h 7.0mph /  11.3km/h 9% 0.00in /  0mm 1078.0 W/m2
13:35 90.7 °F /  32.6 °C 24.1 °F /  -4.4 °C 30.18in /  1021.9hPa SSW 0.9mph /  1.4km/h 7.0mph /  11.3km/h 9% 0.00in /  0mm 1072.0 W/m2
13:38 90.7 °F /  32.6 °C 21.4 °F /  -5.9 °C 30.18in /  1021.9hPa NE 0.9mph /  1.4km/h 1.0mph /  1.6km/h 8% 0.00in /  0mm 1069.0 W/m2
13:44 90.9 °F /  32.7 °C 21.4 °F /  -5.9 °C 30.18in /  1021.9hPa Calm   2.0mph /  3.2km/h 8% 0.00in /  0mm 1065.0 W/m2
13:49 91.2 °F /  32.9 °C 24.4 °F /  -4.2 °C 30.17in /  1021.6hPa SSE 6.9mph /  11.1km/h 12.0mph /  19.3km/h 9% 0.00in /  0mm 1060.0 W/m2
13:54 91.6 °F /  33.1 °C 21.9 °F /  -5.6 °C 30.17in /  1021.6hPa SE 6.0mph /  9.7km/h 10.0mph /  16.1km/h 8% 0.00in /  0mm 1056.0 W/m2
14:00 91.8 °F /  33.2 °C 22.1 °F /  -5.5 °C 30.17in /  1021.6hPa SSE 2.0mph /  3.2km/h 7.0mph /  11.3km/h 8% 0.00in /  0mm 1051.0 W/m2
14:05 91.9 °F /  33.3 °C 22.3 °F /  -5.4 °C 30.17in /  1021.6hPa SE 4.9mph /  7.9km/h 10.0mph /  16.1km/h 8% 0.00in /  0mm 1046.0 W/m2
14:10 91.9 °F /  33.3 °C 22.3 °F /  -5.4 °C 30.16in /  1021.2hPa Calm   4.0mph /  6.4km/h 8% 0.00in /  0mm 1037.0 W/m2
14:21 92.3 °F /  33.5 °C 22.5 °F /  -5.3 °C 30.16in /  1021.2hPa SE 2.0mph /  3.2km/h 11.0mph /  17.7km/h 8% 0.00in /  0mm 1020.0 W/m2
14:26 92.1 °F /  33.4 °C 19.2 °F /  -7.1 °C 30.15in /  1020.9hPa WNW 2.0mph /  3.2km/h 7.0mph /  11.3km/h 7% 0.00in /  0mm 1011.0 W/m2
14:31 91.8 °F /  33.2 °C 22.1 °F /  -5.5 °C 30.15in /  1020.9hPa South 4.0mph /  6.4km/h 13.0mph /  20.9km/h 8% 0.00in /  0mm 1004.0 W/m2
14:37 91.9 °F /  33.3 °C 22.3 °F /  -5.4 °C 30.15in /  1020.9hPa ESE 0.9mph /  1.4km/h 7.0mph /  11.3km/h 8% 0.00in /  0mm 993.0 W/m2
14:48 92.7 °F /  33.7 °C 19.6 °F /  -6.9 °C 30.15in /  1020.9hPa SSE 6.0mph /  9.7km/h 12.0mph /  19.3km/h 7% 0.00in /  0mm 970.0 W/m2
14:58 91.8 °F /  33.2 °C 19.0 °F /  -7.2 °C 30.14in /  1020.5hPa Calm   5.0mph /  8km/h 7% 0.00in /  0mm 949.0 W/m2
15:03 92.5 °F /  33.6 °C 19.6 °F /  -6.9 °C 30.14in /  1020.5hPa Calm   3.0mph /  4.8km/h 7% 0.00in /  0mm 942.0 W/m2
15:04 92.7 °F /  33.7 °C 19.6 °F /  -6.9 °C 30.14in /  1020.5hPa SW 2.9mph /  4.7km/h 9.0mph /  14.5km/h 7% 0.00in /  0mm 935.0 W/m2
15:09 93.0 °F /  33.9 °C 19.9 °F /  -6.7 °C 30.14in /  1020.5hPa SSW 4.0mph /  6.4km/h 6.0mph /  9.7km/h 7% 0.00in /  0mm 926.0 W/m2
15:14 92.8 °F /  33.8 °C 19.8 °F /  -6.8 °C 30.14in /  1020.5hPa ESE 0.9mph /  1.4km/h 4.0mph /  6.4km/h 7% 0.00in /  0mm 911.0 W/m2
15:19 93.4 °F /  34.1 °C 20.1 °F /  -6.6 °C 30.13in /  1020.2hPa Calm   10.0mph /  16.1km/h 7% 0.00in /  0mm 900.0 W/m2
15:25 93.7 °F /  34.3 °C 16.9 °F /  -8.4 °C 30.13in /  1020.2hPa ESE 0.9mph /  1.4km/h 5.0mph /  8km/h 6% 0.00in /  0mm 884.0 W/m2
15:30 93.9 °F /  34.4 °C 20.5 °F /  -6.4 °C 30.13in /  1020.2hPa South 6.0mph /  9.7km/h 7.0mph /  11.3km/h 7% 0.00in /  0mm 868.0 W/m2
15:35 93.9 °F /  34.4 °C 16.9 °F /  -8.4 °C 30.13in /  1020.2hPa South 4.0mph /  6.4km/h 7.0mph /  11.3km/h 6% 0.00in /  0mm 854.0 W/m2
15:40 92.8 °F /  33.8 °C 16.2 °F /  -8.8 °C 30.13in /  1020.2hPa WNW 0.9mph /  1.4km/h 6.0mph /  9.7km/h 6% 0.00in /  0mm 842.0 W/m2
15:45 92.8 °F /  33.8 °C 16.2 °F /  -8.8 °C 30.12in /  1019.9hPa Calm   2.0mph /  3.2km/h 6% 0.00in /  0mm 828.0 W/m2
15:50 93.0 °F /  33.9 °C 16.3 °F /  -8.7 °C 30.12in /  1019.9hPa ESE 0.9mph /  1.4km/h 5.0mph /  8km/h 6% 0.00in /  0mm 816.0 W/m2
15:55 92.8 °F /  33.8 °C 16.2 °F /  -8.8 °C 30.12in /  1019.9hPa SW 2.0mph /  3.2km/h 7.0mph /  11.3km/h 6% 0.00in /  0mm 800.0 W/m2
15:58 93.0 °F /  33.9 °C 16.3 °F /  -8.7 °C 30.12in /  1019.9hPa ESE 8.1mph /  13km/h 8.1mph /  13km/h 6% 0.00in /  0mm 789.0 W/m2
16:01 93.2 °F /  34 °C 16.5 °F /  -8.6 °C 30.12in /  1019.9hPa SE 4.0mph /  6.4km/h 8.0mph /  12.9km/h 6% 0.00in /  0mm 782.0 W/m2
16:06 93.7 °F /  34.3 °C 20.5 °F /  -6.4 °C 30.12in /  1019.9hPa SSW 0.9mph /  1.4km/h 6.0mph /  9.7km/h 7% 0.00in /  0mm 763.0 W/m2
16:11 94.1 °F /  34.5 °C 17.1 °F /  -8.3 °C 30.12in /  1019.9hPa SSE 2.9mph /  4.7km/h 7.0mph /  11.3km/h 6% 0.00in /  0mm 747.0 W/m2
16:22 94.6 °F /  34.8 °C 17.4 °F /  -8.1 °C 30.11in /  1019.5hPa Calm   2.0mph /  3.2km/h 6% 0.00in /  0mm 714.0 W/m2
16:27 94.8 °F /  34.9 °C 13.5 °F /  -10.3 °C 30.12in /  1019.9hPa SE 2.0mph /  3.2km/h 9.0mph /  14.5km/h 5% 0.00in /  0mm 693.0 W/m2
16:32 94.5 °F /  34.7 °C 13.1 °F /  -10.5 °C 30.11in /  1019.5hPa Calm   2.0mph /  3.2km/h 5% 0.00in /  0mm 675.0 W/m2
16:35 94.3 °F /  34.6 °C 17.2 °F /  -8.2 °C 30.11in /  1019.5hPa ESE 2.9mph /  4.7km/h 8.0mph /  12.9km/h 6% 0.00in /  0mm 671.0 W/m2
16:40 93.6 °F /  34.2 °C 16.7 °F /  -8.5 °C 30.11in /  1019.5hPa WSW 4.0mph /  6.4km/h 5.0mph /  8km/h 6% 0.00in /  0mm 649.0 W/m2
16:45 93.6 °F /  34.2 °C 20.3 °F /  -6.5 °C 30.11in /  1019.5hPa Calm   1.0mph /  1.6km/h 7% 0.00in /  0mm 631.0 W/m2
16:56 93.4 °F /  34.1 °C 16.5 °F /  -8.6 °C 30.11in /  1019.5hPa East 2.9mph /  4.7km/h 7.0mph /  11.3km/h 6% 0.00in /  0mm 591.0 W/m2
17:03 93.7 °F /  34.3 °C 12.7 °F /  -10.7 °C 30.11in /  1019.5hPa SSE 6.9mph /  11.1km/h 10.0mph /  16.1km/h 5% 0.00in /  0mm 570.0 W/m2
17:08 93.9 °F /  34.4 °C 12.7 °F /  -10.7 °C 30.11in /  1019.5hPa ESE 2.0mph /  3.2km/h 9.0mph /  14.5km/h 5% 0.00in /  0mm 550.0 W/m2
17:14 93.7 °F /  34.3 °C 12.7 °F /  -10.7 °C 30.11in /  1019.5hPa SSW 2.0mph /  3.2km/h 4.0mph /  6.4km/h 5% 0.00in /  0mm 527.0 W/m2
17:19 93.7 °F /  34.3 °C 12.7 °F /  -10.7 °C 30.11in /  1019.5hPa Calm   2.0mph /  3.2km/h 5% 0.00in /  0mm 508.0 W/m2
17:21 93.9 °F /  34.4 °C 12.7 °F /  -10.7 °C 30.11in /  1019.5hPa Calm   7.0mph /  11.3km/h 5% 0.00in /  0mm 499.0 W/m2
17:26 94.3 °F /  34.6 °C 13.1 °F /  -10.5 °C 30.11in /  1019.5hPa SW 4.0mph /  6.4km/h 8.0mph /  12.9km/h 5% 0.00in /  0mm 482.0 W/m2
17:41 93.7 °F /  34.3 °C 12.7 °F /  -10.7 °C 30.10in /  1019.2hPa ESE 0.9mph /  1.4km/h 6.0mph /  9.7km/h 5% 0.00in /  0mm 425.0 W/m2
17:46 93.9 °F /  34.4 °C 12.7 °F /  -10.7 °C 30.11in /  1019.5hPa SSE 8.1mph /  13km/h 8.1mph /  13km/h 5% 0.00in /  0mm 403.0 W/m2
17:49 93.7 °F /  34.3 °C 12.7 °F /  -10.7 °C 30.11in /  1019.5hPa SSW 2.0mph /  3.2km/h 4.0mph /  6.4km/h 5% 0.00in /  0mm 392.0 W/m2
17:55 93.6 °F /  34.2 °C 12.6 °F /  -10.8 °C 30.11in /  1019.5hPa SSE 4.9mph /  7.9km/h 5.0mph /  8km/h 5% 0.00in /  0mm 367.0 W/m2
18:00 93.6 °F /  34.2 °C 12.6 °F /  -10.8 °C 30.11in /  1019.5hPa WSW 0.9mph /  1.4km/h 3.0mph /  4.8km/h 5% 0.00in /  0mm 346.0 W/m2
18:06 93.6 °F /  34.2 °C 12.6 °F /  -10.8 °C 30.11in /  1019.5hPa SE 6.0mph /  9.7km/h 11.0mph /  17.7km/h 5% 0.00in /  0mm 323.0 W/m2
18:11 93.4 °F /  34.1 °C 12.4 °F /  -10.9 °C 30.11in /  1019.5hPa ENE 2.0mph /  3.2km/h 8.0mph /  12.9km/h 5% 0.00in /  0mm 302.0 W/m2
18:16 93.6 °F /  34.2 °C 12.6 °F /  -10.8 °C 30.11in /  1019.5hPa South 2.9mph /  4.7km/h 3.0mph /  4.8km/h 5% 0.00in /  0mm 281.0 W/m2
18:21 93.6 °F /  34.2 °C 12.6 °F /  -10.8 °C 30.11in /  1019.5hPa ESE 4.9mph /  7.9km/h 6.0mph /  9.7km/h 5% 0.00in /  0mm 260.0 W/m2
18:26 93.0 °F /  33.9 °C 12.2 °F /  -11 °C 30.11in /  1019.5hPa ENE 0.9mph /  1.4km/h 7.0mph /  11.3km/h 5% 0.00in /  0mm 239.0 W/m2
18:31 92.7 °F /  33.7 °C 11.8 °F /  -11.2 °C 30.11in /  1019.5hPa SE 2.9mph /  4.7km/h 3.0mph /  4.8km/h 5% 0.00in /  0mm 218.0 W/m2
18:32 92.7 °F /  33.7 °C 11.8 °F /  -11.2 °C 30.11in /  1019.5hPa SE 4.9mph /  7.9km/h 7.0mph /  11.3km/h 5% 0.00in /  0mm 216.0 W/m2
18:37 92.3 °F /  33.5 °C 11.7 °F /  -11.3 °C 30.11in /  1019.5hPa SE 6.9mph /  11.1km/h 8.0mph /  12.9km/h 5% 0.00in /  0mm 195.0 W/m2
18:47 91.4 °F /  33 °C 10.9 °F /  -11.7 °C 30.12in /  1019.9hPa WSW 4.0mph /  6.4km/h 4.0mph /  6.4km/h 5% 0.00in /  0mm 30.0 W/m2
18:53 90.5 °F /  32.5 °C 10.4 °F /  -12 °C 30.12in /  1019.9hPa SE 0.9mph /  1.4km/h 1.0mph /  1.6km/h 5% 0.00in /  0mm 26.0 W/m2
19:04 89.6 °F /  32 °C 13.8 °F /  -10.1 °C 30.12in /  1019.9hPa SE 2.0mph /  3.2km/h 4.0mph /  6.4km/h 6% 0.00in /  0mm 21.0 W/m2
19:09 89.1 °F /  31.7 °C 9.3 °F /  -12.6 °C 30.12in /  1019.9hPa SSE 2.0mph /  3.2km/h 5.0mph /  8km/h 5% 0.00in /  0mm 19.0 W/m2
19:17 88.5 °F /  31.4 °C 9.0 °F /  -12.8 °C 30.13in /  1020.2hPa East 2.9mph /  4.7km/h 4.0mph /  6.4km/h 5% 0.00in /  0mm 14.0 W/m2
19:27 87.6 °F /  30.9 °C 12.4 °F /  -10.9 °C 30.13in /  1020.2hPa East 0.9mph /  1.4km/h 3.0mph /  4.8km/h 6% 0.00in /  0mm 9.0 W/m2
19:32 86.9 °F /  30.5 °C 11.8 °F /  -11.2 °C 30.13in /  1020.2hPa ESE 4.0mph /  6.4km/h 7.0mph /  11.3km/h 6% 0.00in /  0mm 7.0 W/m2
19:37 86.4 °F /  30.2 °C 11.5 °F /  -11.4 °C 30.14in /  1020.5hPa East 6.0mph /  9.7km/h 10.0mph /  16.1km/h 6% 0.00in /  0mm 5.0 W/m2
19:42 85.8 °F /  29.9 °C 7.2 °F /  -13.8 °C 30.14in /  1020.5hPa SE 4.9mph /  7.9km/h 5.0mph /  8km/h 5% 0.00in /  0mm 0.0 W/m2
19:49 85.3 °F /  29.6 °C 6.8 °F /  -14 °C 30.14in /  1020.5hPa ESE 0.9mph /  1.4km/h 7.0mph /  11.3km/h 5% 0.00in /  0mm 0.0 W/m2
19:54 84.7 °F /  29.3 °C 6.3 °F /  -14.3 °C 30.14in /  1020.5hPa ESE 2.0mph /  3.2km/h 7.0mph /  11.3km/h 5% 0.00in /  0mm 0.0 W/m2
19:59 84.6 °F /  29.2 °C 6.3 °F /  -14.3 °C 30.14in /  1020.5hPa SSE 6.9mph /  11.1km/h 7.0mph /  11.3km/h 5% 0.00in /  0mm 0.0 W/m2
20:14 83.3 °F /  28.5 °C 5.4 °F /  -14.8 °C 30.15in /  1020.9hPa ESE 2.9mph /  4.7km/h 7.0mph /  11.3km/h 5% 0.00in /  0mm 0.0 W/m2
20:19 82.9 °F /  28.3 °C 5.0 °F /  -15 °C 30.15in /  1020.9hPa SE 2.0mph /  3.2km/h 5.0mph /  8km/h 5% 0.00in /  0mm 0.0 W/m2
20:25 82.8 °F /  28.2 °C 5.0 °F /  -15 °C 30.15in /  1020.9hPa SE 2.9mph /  4.7km/h 6.0mph /  9.7km/h 5% 0.00in /  0mm 0.0 W/m2
20:27 82.6 °F /  28.1 °C 8.8 °F /  -12.9 °C 30.15in /  1020.9hPa SE 2.0mph /  3.2km/h 8.0mph /  12.9km/h 6% 0.00in /  0mm 0.0 W/m2
20:32 82.2 °F /  27.9 °C 4.6 °F /  -15.2 °C 30.15in /  1020.9hPa SE 4.9mph /  7.9km/h 7.0mph /  11.3km/h 5% 0.00in /  0mm 0.0 W/m2
20:34 82.2 °F /  27.9 °C 4.6 °F /  -15.2 °C 30.15in /  1020.9hPa SE 4.9mph /  7.9km/h 6.0mph /  9.7km/h 5% 0.00in /  0mm 0.0 W/m2
20:41 81.9 °F /  27.7 °C 4.3 °F /  -15.4 °C 30.15in /  1020.9hPa ESE 4.0mph /  6.4km/h 4.0mph /  6.4km/h 5% 0.00in /  0mm 0.0 W/m2
20:46 81.5 °F /  27.5 °C 8.1 °F /  -13.3 °C 30.15in /  1020.9hPa SE 4.0mph /  6.4km/h 8.0mph /  12.9km/h 6% 0.00in /  0mm 0.0 W/m2
20:51 81.3 °F /  27.4 °C 7.9 °F /  -13.4 °C 30.16in /  1021.2hPa SE 2.0mph /  3.2km/h 5.0mph /  8km/h 6% 0.00in /  0mm 0.0 W/m2
20:54 81.1 °F /  27.3 °C 7.9 °F /  -13.4 °C 30.16in /  1021.2hPa SE 2.9mph /  4.7km/h 6.0mph /  9.7km/h 6% 0.00in /  0mm 0.0 W/m2
21:01 81.0 °F /  27.2 °C 7.7 °F /  -13.5 °C 30.16in /  1021.2hPa SE 4.0mph /  6.4km/h 8.0mph /  12.9km/h 6% 0.00in /  0mm 0.0 W/m2
21:06 80.8 °F /  27.1 °C 7.5 °F /  -13.6 °C 30.16in /  1021.2hPa SSE 4.0mph /  6.4km/h 6.0mph /  9.7km/h 6% 0.00in /  0mm 0.0 W/m2
21:11 80.8 °F /  27.1 °C 7.5 °F /  -13.6 °C 30.16in /  1021.2hPa ESE 6.0mph /  9.7km/h 7.0mph /  11.3km/h 6% 0.00in /  0mm 0.0 W/m2
21:16 80.6 °F /  27 °C 7.3 °F /  -13.7 °C 30.16in /  1021.2hPa SE 4.9mph /  7.9km/h 9.0mph /  14.5km/h 6% 0.00in /  0mm 0.0 W/m2
21:21 80.4 °F /  26.9 °C 7.3 °F /  -13.7 °C 30.17in /  1021.6hPa ESE 4.0mph /  6.4km/h 9.0mph /  14.5km/h 6% 0.00in /  0mm 0.0 W/m2
21:26 80.4 °F /  26.9 °C 7.3 °F /  -13.7 °C 30.17in /  1021.6hPa ESE 4.0mph /  6.4km/h 8.0mph /  12.9km/h 6% 0.00in /  0mm 0.0 W/m2
21:31 80.4 °F /  26.9 °C 7.3 °F /  -13.7 °C 30.17in /  1021.6hPa SE 4.9mph /  7.9km/h 8.0mph /  12.9km/h 6% 0.00in /  0mm 0.0 W/m2
21:36 80.4 °F /  26.9 °C 7.3 °F /  -13.7 °C 30.17in /  1021.6hPa SE 4.0mph /  6.4km/h 9.0mph /  14.5km/h 6% 0.00in /  0mm 0.0 W/m2
21:37 80.4 °F /  26.9 °C 7.3 °F /  -13.7 °C 30.17in /  1021.6hPa SE 4.9mph /  7.9km/h 9.0mph /  14.5km/h 6% 0.00in /  0mm 0.0 W/m2
21:42 80.2 °F /  26.8 °C 7.2 °F /  -13.8 °C 30.17in /  1021.6hPa ESE 2.0mph /  3.2km/h 9.0mph /  14.5km/h 6% 0.00in /  0mm 0.0 W/m2
21:47 80.2 °F /  26.8 °C 7.2 °F /  -13.8 °C 30.17in /  1021.6hPa SE 4.9mph /  7.9km/h 10.0mph /  16.1km/h 6% 0.00in /  0mm 0.0 W/m2
21:52 80.2 °F /  26.8 °C 7.2 °F /  -13.8 °C 30.18in /  1021.9hPa SE 6.0mph /  9.7km/h 10.0mph /  16.1km/h 6% 0.00in /  0mm 0.0 W/m2
21:54 80.2 °F /  26.8 °C 7.2 °F /  -13.8 °C 30.18in /  1021.9hPa East 4.0mph /  6.4km/h 10.0mph /  16.1km/h 6% 0.00in /  0mm 0.0 W/m2
22:05 80.1 °F /  26.7 °C 7.0 °F /  -13.9 °C 30.18in /  1021.9hPa ESE 10.1mph /  16.3km/h 10.1mph /  16.3km/h 6% 0.00in /  0mm 0.0 W/m2
22:10 80.1 °F /  26.7 °C 7.0 °F /  -13.9 °C 30.18in /  1021.9hPa SSE 2.0mph /  3.2km/h 10.0mph /  16.1km/h 6% 0.00in /  0mm 0.0 W/m2
22:18 80.1 °F /  26.7 °C 7.0 °F /  -13.9 °C 30.18in /  1021.9hPa SE 6.0mph /  9.7km/h 7.0mph /  11.3km/h 6% 0.00in /  0mm 0.0 W/m2
22:23 79.9 °F /  26.6 °C 6.8 °F /  -14 °C 30.19in /  1022.2hPa ESE 2.9mph /  4.7km/h 8.0mph /  12.9km/h 6% 0.00in /  0mm 0.0 W/m2
22:25 79.9 °F /  26.6 °C 6.8 °F /  -14 °C 30.19in /  1022.2hPa SE 6.0mph /  9.7km/h 10.0mph /  16.1km/h 6% 0.00in /  0mm 0.0 W/m2
22:30 79.7 °F /  26.5 °C 6.8 °F /  -14 °C 30.19in /  1022.2hPa SE 6.0mph /  9.7km/h 11.0mph /  17.7km/h 6% 0.00in /  0mm 0.0 W/m2
22:35 79.5 °F /  26.4 °C 6.6 °F /  -14.1 °C 30.19in /  1022.2hPa SE 0.9mph /  1.4km/h 8.0mph /  12.9km/h 6% 0.00in /  0mm 0.0 W/m2
22:45 79.3 °F /  26.3 °C 9.9 °F /  -12.3 °C 30.19in /  1022.2hPa SE 4.9mph /  7.9km/h 12.0mph /  19.3km/h 7% 0.00in /  0mm 0.0 W/m2
22:49 79.3 °F /  26.3 °C 9.9 °F /  -12.3 °C 30.19in /  1022.2hPa ESE 4.9mph /  7.9km/h 10.0mph /  16.1km/h 7% 0.00in /  0mm 0.0 W/m2
22:54 79.3 °F /  26.3 °C 12.9 °F /  -10.6 °C 30.19in /  1022.2hPa SE 6.0mph /  9.7km/h 7.0mph /  11.3km/h 8% 0.00in /  0mm 0.0 W/m2
23:01 79.3 °F /  26.3 °C 12.9 °F /  -10.6 °C 30.20in /  1022.6hPa SE 6.9mph /  11.1km/h 7.0mph /  11.3km/h 8% 0.00in /  0mm 0.0 W/m2
23:12 79.3 °F /  26.3 °C 12.9 °F /  -10.6 °C 30.20in /  1022.6hPa ESE 2.9mph /  4.7km/h 8.0mph /  12.9km/h 8% 0.00in /  0mm 0.0 W/m2
23:17 79.3 °F /  26.3 °C 12.9 °F /  -10.6 °C 30.20in /  1022.6hPa ESE 6.9mph /  11.1km/h 11.0mph /  17.7km/h 8% 0.00in /  0mm 0.0 W/m2
23:32 79.3 °F /  26.3 °C 12.9 °F /  -10.6 °C 30.20in /  1022.6hPa ESE 8.1mph /  13km/h 10.0mph /  16.1km/h 8% 0.00in /  0mm 0.0 W/m2
23:33 79.3 °F /  26.3 °C 12.9 °F /  -10.6 °C 30.20in /  1022.6hPa SE 6.0mph /  9.7km/h 9.0mph /  14.5km/h 8% 0.00in /  0mm 0.0 W/m2
23:38 79.5 °F /  26.4 °C 13.1 °F /  -10.5 °C 30.20in /  1022.6hPa SE 6.9mph /  11.1km/h 7.0mph /  11.3km/h 8% 0.00in /  0mm 0.0 W/m2
23:43 79.5 °F /  26.4 °C 13.1 °F /  -10.5 °C 30.20in /  1022.6hPa SE 4.9mph /  7.9km/h 10.0mph /  16.1km/h 8% 0.00in /  0mm 0.0 W/m2
23:49 79.3 °F /  26.3 °C 12.9 °F /  -10.6 °C 30.20in /  1022.6hPa SE 6.0mph /  9.7km/h 9.0mph /  14.5km/h 8% 0.00in /  0mm 0.0 W/m2
23:59 79.3 °F /  26.3 °C 12.9 °F /  -10.6 °C 30.20in /  1022.6hPa SE 6.0mph /  9.7km/h 8.0mph /  12.9km/h 8% 0.00in /  0mm 0.0 W/m2
Olympia, Windhoek, Namibia
Compliments of Weather Underground - 3.25 mb